BRIO2: Bridgeport 4E

                                SHEF ID:       BRIO2     Canadian River at Bridgeport, OK
STATION TYPE:
Regulating: Stage = 15.00, Flow = 8372

STAGE RIV-FLOW BAT-LOAD
ft cfs volt
Ccp-Rev Ccp-Rev Ccp-Rev
(America/Chicago)
11/01 00:00 10.48 348 12.65
11/01 01:00 10.46 339 12.63
11/01 02:00 10.46 339 12.61
11/01 03:00 10.45 335 12.60
11/01 04:00 10.44 330 12.58
11/01 05:00 10.43 326 12.57
11/01 06:00 10.43 326 12.54
11/01 07:00 10.42 321 12.54
11/01 08:00 10.42 321 12.53
11/01 09:00 10.41 317 13.49
11/01 10:00 10.38 304 13.69
11/01 11:00 10.40 313 13.58
11/01 12:00 10.42 321 13.45
11/01 13:00 10.41 317 13.47
11/01 14:00 10.40 313 13.47
11/01 15:00 10.39 308 13.48
11/01 16:00 10.38 304 13.46
11/01 17:00 10.38 304 13.28
11/01 18:00 10.38 304 13.12
11/01 19:00 10.37 300 12.89
11/01 20:00 10.36 296 12.80
11/01 21:00 10.37 300 12.76
11/01 22:00 10.37 300 12.73
11/01 23:00 10.37 300 12.71
Data processed at Thu 02Nov2023 04:55 GMT

Parsing this webpage?

Checkout our new Data API! CWMSDataAPI (CDA)

All information presented herein is the property of the government of the United States of America and may be revised or deleted at any time without prior notice. Dissemination of this information without the expressed written consent of the Public Affairs Office, Tulsa District U.S. Army Corps of Engineers is strictly prohibited. These data are gathered electronically and, as presented, have NOT undergone any form of quality control. These data are NOT guaranteed to be valid or correct.